createdAt,value
2024-02-23T00:00:12.517Z,97817.56
2024-02-23T00:03:14.648Z,97807.69
2024-02-23T00:06:18.896Z,97808.81
2024-02-23T00:09:21.126Z,97813.59
2024-02-23T00:12:23.382Z,97822.31
2024-02-23T00:15:26.557Z,97810.19
2024-02-23T00:18:28.857Z,97813.75
2024-02-23T00:21:31.114Z,97805.06
2024-02-23T00:24:33.506Z,97814.47
2024-02-23T00:27:35.698Z,97806.59
2024-02-23T00:30:38.080Z,97801.63
2024-02-23T00:33:43.433Z,97806.16
2024-02-23T00:36:46.132Z,97805.66
2024-02-23T00:39:48.542Z,97811.03
2024-02-23T00:42:50.783Z,97807.91
2024-02-23T00:45:52.950Z,97805.00
2024-02-23T00:48:55.511Z,97805.78
2024-02-23T00:51:57.721Z,97796.31
2024-02-23T00:54:59.921Z,97805.00
2024-02-23T00:58:02.220Z,97800.03
2024-02-23T01:01:04.641Z,97800.91
2024-02-23T01:04:06.897Z,97796.75
2024-02-23T01:07:09.080Z,97791.25
2024-02-23T01:10:11.320Z,97790.59
2024-02-23T01:13:13.571Z,97798.66
2024-02-23T01:16:16.617Z,97773.25
2024-02-23T01:19:20.096Z,97786.16
2024-02-23T01:22:22.447Z,97790.38
2024-02-23T01:25:24.716Z,97787.56
2024-02-23T01:28:27.007Z,97771.25
2024-02-23T01:31:29.192Z,97775.69
2024-02-23T01:34:31.311Z,97769.34
2024-02-23T01:37:33.641Z,97785.16
2024-02-23T01:40:36.231Z,97777.59
2024-02-23T01:43:38.721Z,97769.81
2024-02-23T01:46:40.924Z,97771.91
2024-02-23T01:49:43.664Z,97766.84
2024-02-23T01:52:45.876Z,97767.59
2024-02-23T01:55:48.799Z,97761.41
2024-02-23T01:58:51.164Z,97772.31
2024-02-23T02:01:53.426Z,97766.75
2024-02-23T02:04:55.722Z,97762.88
2024-02-23T02:08:00.564Z,97755.50
2024-02-23T02:11:03.237Z,97760.03
2024-02-23T02:14:05.537Z,97757.13
2024-02-23T02:17:08.300Z,97763.97
2024-02-23T02:20:14.888Z,97779.09
2024-02-23T02:23:17.593Z,97757.59
2024-02-23T02:26:20.544Z,97761.50
2024-02-23T02:29:23.112Z,97761.66
2024-02-23T02:32:25.587Z,97767.63
2024-02-23T02:35:27.882Z,97757.19
2024-02-23T02:38:30.283Z,97741.88
2024-02-23T02:41:32.671Z,97749.34
2024-02-23T02:44:34.940Z,97751.13
2024-02-23T02:47:37.744Z,97750.34
2024-02-23T02:50:40.745Z,97747.63
2024-02-23T02:53:43.047Z,97753.75
2024-02-23T02:56:46.805Z,97755.56
2024-02-23T02:59:51.204Z,97761.47
2024-02-23T03:02:54.230Z,97766.28
2024-02-23T03:05:56.525Z,97754.00
2024-02-23T03:08:58.692Z,97761.94
2024-02-23T03:12:00.971Z,97768.66
2024-02-23T03:15:06.664Z,97773.91
2024-02-23T03:18:10.852Z,97760.91
2024-02-23T03:21:14.211Z,97780.59
2024-02-23T03:24:16.396Z,97774.44
2024-02-23T03:27:18.576Z,97785.50
2024-02-23T03:30:20.779Z,97781.13
2024-02-23T03:33:23.078Z,97759.19
2024-02-23T03:36:25.319Z,97779.66
2024-02-23T03:39:27.564Z,97782.38
2024-02-23T03:42:29.716Z,97781.88
2024-02-23T03:45:31.955Z,97777.34
2024-02-23T03:48:34.219Z,97781.56
2024-02-23T03:51:40.333Z,97781.38
2024-02-23T03:54:42.631Z,97779.56
2024-02-23T03:57:47.468Z,97778.22
2024-02-23T04:00:49.982Z,97769.63
2024-02-23T04:03:52.172Z,97778.22
2024-02-23T04:06:54.327Z,97787.72
2024-02-23T04:09:56.437Z,97785.78
2024-02-23T04:12:59.223Z,97786.13
2024-02-23T04:16:02.247Z,97787.59
2024-02-23T04:19:04.628Z,97782.13
2024-02-23T04:22:09.833Z,97782.75
2024-02-23T04:25:12.063Z,97769.78
2024-02-23T04:28:14.245Z,97789.38
2024-02-23T04:31:16.590Z,97779.31
2024-02-23T04:34:18.824Z,97786.88
2024-02-23T04:37:21.094Z,97778.84
2024-02-23T04:40:23.287Z,97788.22
2024-02-23T04:43:26.039Z,97783.50
2024-02-23T04:47:26.506Z,53628.75
2024-02-23T04:51:27.375Z,53628.75
2024-02-23T04:55:28.092Z,53628.75
2024-02-23T04:59:29.356Z,53628.75
2024-02-23T05:03:30.139Z,53628.75
2024-02-23T05:07:33.908Z,53628.75
2024-02-23T05:11:34.861Z,53628.75
2024-02-23T05:15:35.664Z,53628.75
2024-02-23T05:19:37.586Z,53628.75
2024-02-23T05:23:38.799Z,53628.75
2024-02-23T05:26:41.023Z,97796.78
2024-02-23T05:29:43.244Z,97796.06
2024-02-23T05:32:45.632Z,97801.09
2024-02-23T05:35:49.842Z,97810.00
2024-02-23T05:38:51.994Z,97817.03
2024-02-23T05:41:54.311Z,97815.78
2024-02-23T05:44:56.504Z,97829.31
2024-02-23T05:47:59.121Z,97847.53
2024-02-23T05:51:01.635Z,97844.81
2024-02-23T05:54:03.987Z,97854.84
2024-02-23T05:57:06.210Z,97857.16
2024-02-23T06:00:08.751Z,97869.72
2024-02-23T06:03:14.580Z,97873.06
2024-02-23T06:06:17.032Z,97872.31
2024-02-23T06:09:20.224Z,97890.91
2024-02-23T06:12:22.933Z,97891.59
2024-02-23T06:15:25.154Z,97892.66
2024-02-23T06:18:27.335Z,97904.50
2024-02-23T06:21:29.622Z,97900.81
2024-02-23T06:24:31.767Z,97910.41
2024-02-23T06:27:34.174Z,97907.66
2024-02-23T06:30:36.297Z,97910.22
2024-02-23T06:33:38.714Z,97915.06
2024-02-23T06:36:41.148Z,97921.22
2024-02-23T06:39:43.341Z,97916.19
2024-02-23T06:42:45.510Z,97918.94
2024-02-23T06:45:47.682Z,97920.75
2024-02-23T06:48:50.113Z,97908.19
2024-02-23T06:51:52.354Z,97926.38
2024-02-23T06:54:54.552Z,97918.72
2024-02-23T06:57:56.697Z,97921.53
2024-02-23T07:00:59.091Z,97924.00
2024-02-23T07:04:01.423Z,97922.94
2024-02-23T07:07:08.359Z,97923.13
2024-02-23T07:10:11.662Z,97917.25
2024-02-23T07:13:13.913Z,97921.91
2024-02-23T07:16:16.196Z,97910.91
2024-02-23T07:19:18.585Z,97918.19
2024-02-23T07:22:21.510Z,97919.94
2024-02-23T07:25:23.815Z,97923.63
2024-02-23T07:28:25.921Z,97917.47
2024-02-23T07:31:28.418Z,97930.06
2024-02-23T07:34:32.612Z,97928.66
2024-02-23T07:37:35.006Z,97936.13
2024-02-23T07:40:37.313Z,97935.94
2024-02-23T07:43:39.467Z,97935.84
2024-02-23T07:46:42.946Z,97934.97
2024-02-23T07:49:45.232Z,97935.06
2024-02-23T07:52:47.537Z,97931.56
2024-02-23T07:55:49.762Z,97932.88
2024-02-23T07:58:53.322Z,97924.06
2024-02-23T08:01:56.704Z,97934.16
2024-02-23T08:04:59.156Z,97933.28
2024-02-23T08:08:02.593Z,97943.59
2024-02-23T08:11:05.271Z,97944.47
2024-02-23T08:14:07.568Z,97944.16
2024-02-23T08:17:09.790Z,97945.47
2024-02-23T08:20:12.305Z,97948.28
2024-02-23T08:23:14.961Z,97952.00
2024-02-23T08:26:17.421Z,97957.00
2024-02-23T08:29:19.716Z,97965.41
2024-02-23T08:32:22.034Z,97958.84
2024-02-23T08:35:24.498Z,97958.03
2024-02-23T08:38:26.827Z,97969.38
2024-02-23T08:41:29.000Z,97963.34
2024-02-23T08:44:31.243Z,97955.13
2024-02-23T08:47:36.148Z,97958.25
2024-02-23T08:50:39.514Z,97970.06
2024-02-23T08:53:45.679Z,97965.91
2024-02-23T08:56:47.978Z,97962.47
2024-02-23T08:59:50.995Z,97961.78
2024-02-23T09:02:53.174Z,97971.13
2024-02-23T09:05:55.467Z,97973.78
2024-02-23T09:08:57.766Z,97977.22
2024-02-23T09:12:00.069Z,97970.72
2024-02-23T09:15:02.345Z,97971.72
2024-02-23T09:18:04.782Z,97979.63
2024-02-23T09:21:07.851Z,97979.19
2024-02-23T09:24:10.151Z,97974.91
2024-02-23T09:27:12.383Z,97979.63
2024-02-23T09:30:15.251Z,97978.41
2024-02-23T09:33:17.535Z,97987.41
2024-02-23T09:36:19.840Z,97974.41
2024-02-23T09:39:22.026Z,97974.41
2024-02-23T09:42:29.736Z,97976.25
2024-02-23T09:45:36.240Z,97974.41
2024-02-23T09:48:40.791Z,97979.28
2024-02-23T09:51:44.893Z,97981.03
2024-02-23T09:54:47.126Z,97982.47
2024-02-23T09:57:52.473Z,97990.34
2024-02-23T10:00:55.131Z,97992.84
2024-02-23T10:04:01.434Z,98007.06
2024-02-23T10:07:05.796Z,98000.44
2024-02-23T10:10:09.746Z,97989.91
2024-02-23T10:13:11.970Z,97999.56
2024-02-23T10:16:15.828Z,97992.19
2024-02-23T10:19:18.691Z,97993.81
2024-02-23T10:22:22.646Z,98005.53
2024-02-23T10:25:25.552Z,98013.38
2024-02-23T10:28:29.329Z,98020.63
2024-02-23T10:31:39.953Z,98021.66
2024-02-23T10:34:45.511Z,98027.34
2024-02-23T10:37:54.526Z,98030.22
2024-02-23T10:40:59.982Z,98017.03
2024-02-23T10:44:04.771Z,98023.84
2024-02-23T10:47:08.350Z,98028.22
2024-02-23T10:50:11.904Z,98021.09
2024-02-23T10:53:15.297Z,98028.88
2024-02-23T10:56:17.610Z,98028.06
2024-02-23T10:59:20.898Z,98024.94
2024-02-23T11:02:26.838Z,98035.34
2024-02-23T11:05:29.512Z,98029.19
2024-02-23T11:08:34.185Z,98033.56
2024-02-23T11:11:38.171Z,98037.50
2024-02-23T11:14:40.695Z,98045.47
2024-02-23T11:17:43.014Z,98044.59
2024-02-23T11:20:45.268Z,98034.63
2024-02-23T11:23:53.467Z,98040.03
2024-02-23T11:27:00.266Z,98047.16
2024-02-23T11:30:04.770Z,98036.59
2024-02-23T11:33:09.240Z,98032.53
2024-02-23T11:36:12.295Z,98039.25
2024-02-23T11:39:14.804Z,98041.06
2024-02-23T11:42:17.032Z,98039.63
2024-02-23T11:45:19.525Z,98038.66
2024-02-23T11:48:24.697Z,98036.84
2024-02-23T11:51:30.326Z,98040.22
2024-02-23T11:54:32.594Z,98024.13
2024-02-23T11:57:43.056Z,98022.28
2024-02-23T12:00:51.979Z,98025.28
2024-02-23T12:03:54.223Z,98020.34
2024-02-23T12:06:57.262Z,98015.47
2024-02-23T12:09:59.700Z,98019.94
2024-02-23T12:13:01.999Z,98009.75
2024-02-23T12:16:04.600Z,98003.97
2024-02-23T12:19:09.378Z,98015.91
2024-02-23T12:22:13.461Z,98019.91
2024-02-23T12:25:16.348Z,98010.50
2024-02-23T12:28:21.850Z,98017.75
2024-02-23T12:31:27.623Z,98019.28
2024-02-23T12:34:30.284Z,98016.16
2024-02-23T12:37:36.644Z,98007.41
2024-02-23T12:40:39.359Z,98006.53
2024-02-23T12:43:43.496Z,98005.06
2024-02-23T12:46:46.672Z,98010.47
2024-02-23T12:49:50.211Z,98011.94
2024-02-23T12:52:53.292Z,98014.13
2024-02-23T12:55:55.613Z,98013.78
2024-02-23T12:58:58.579Z,98013.56
2024-02-23T13:02:01.158Z,98021.72
2024-02-23T13:05:03.796Z,98025.69
2024-02-23T13:08:06.710Z,98027.22
2024-02-23T13:11:09.339Z,98025.84
2024-02-23T13:14:11.730Z,98030.16
2024-02-23T13:17:14.057Z,98025.56
2024-02-23T13:20:16.365Z,98030.94
2024-02-23T13:23:18.696Z,98026.56
2024-02-23T13:26:20.964Z,98026.03
2024-02-23T13:29:23.280Z,98032.13
2024-02-23T13:32:25.794Z,98034.25
2024-02-23T13:35:36.059Z,98037.44
2024-02-23T13:38:40.685Z,98030.41
2024-02-23T13:41:43.448Z,98030.41
2024-02-23T13:44:46.361Z,98023.78
2024-02-23T13:48:02.852Z,98024.66
2024-02-23T13:51:06.151Z,98020.34
2024-02-23T13:54:08.392Z,98024.25
2024-02-23T13:57:10.731Z,98023.63
2024-02-23T14:00:13.878Z,98030.00
2024-02-23T14:03:21.769Z,98020.53
2024-02-23T14:06:25.048Z,98024.13
2024-02-23T14:09:27.292Z,98018.13
2024-02-23T14:12:30.627Z,98013.22
2024-02-23T14:15:41.176Z,98013.97
2024-02-23T14:18:45.454Z,98009.19
2024-02-23T14:21:49.681Z,98005.81
2024-02-23T14:24:52.147Z,98013.56
2024-02-23T14:27:56.688Z,98014.38
2024-02-23T14:30:59.298Z,98010.88
2024-02-23T14:34:01.574Z,98012.56
2024-02-23T14:37:04.005Z,98012.38
2024-02-23T14:40:06.912Z,98020.75
2024-02-23T14:43:10.608Z,98009.28
2024-02-23T14:46:13.356Z,98006.34
2024-02-23T14:49:15.647Z,98012.88
2024-02-23T14:52:17.990Z,98014.94
2024-02-23T14:55:20.157Z,98013.31
2024-02-23T14:58:22.394Z,98021.38
2024-02-23T15:01:24.720Z,98020.31
2024-02-23T15:04:27.012Z,98019.84
2024-02-23T15:07:29.552Z,98018.91
2024-02-23T15:10:37.737Z,98011.00
2024-02-23T15:13:40.239Z,98011.94
2024-02-23T15:16:42.466Z,98002.22
2024-02-23T15:19:44.700Z,98008.09
2024-02-23T15:22:48.064Z,98010.75
2024-02-23T15:25:57.483Z,98011.63
2024-02-23T15:29:06.729Z,98006.41
2024-02-23T15:32:09.014Z,97993.34
2024-02-23T15:35:11.303Z,97996.69
2024-02-23T15:38:13.537Z,98005.22
2024-02-23T15:41:15.825Z,98006.84
2024-02-23T15:44:20.814Z,97999.25
2024-02-23T15:47:23.749Z,97998.44
2024-02-23T15:50:42.894Z,98003.53
2024-02-23T15:53:50.690Z,98006.09
2024-02-23T15:56:52.936Z,98002.50
2024-02-23T16:00:02.740Z,98002.50
2024-02-23T16:03:07.206Z,97999.06
2024-02-23T16:06:09.585Z,97996.91
2024-02-23T16:09:16.127Z,98008.16
2024-02-23T16:12:18.452Z,98002.59
2024-02-23T16:15:20.976Z,97999.00
2024-02-23T16:18:23.255Z,98002.81
2024-02-23T16:21:25.512Z,98012.16
2024-02-23T16:24:27.700Z,98017.03
2024-02-23T16:27:29.947Z,98016.16
2024-02-23T16:30:33.684Z,98012.63
2024-02-23T16:33:35.970Z,98009.09
2024-02-23T16:36:38.149Z,98009.03
2024-02-23T16:39:40.304Z,98019.50
2024-02-23T16:42:43.595Z,98015.72
2024-02-23T16:45:51.145Z,98017.31
2024-02-23T16:48:53.399Z,98020.81
2024-02-23T16:51:55.813Z,98017.06
2024-02-23T16:54:59.126Z,98019.44
2024-02-23T16:58:01.369Z,98001.69
2024-02-23T17:01:05.895Z,98005.66
2024-02-23T17:04:08.217Z,98006.63
2024-02-23T17:07:10.507Z,98017.16
2024-02-23T17:10:12.716Z,98004.56
2024-02-23T17:13:14.864Z,98013.66
2024-02-23T17:16:17.067Z,98013.09
2024-02-23T17:19:19.263Z,98010.09
2024-02-23T17:22:25.819Z,98014.22
2024-02-23T17:25:28.012Z,98016.69
2024-02-23T17:28:31.560Z,98013.53
2024-02-23T17:31:33.950Z,98019.56
2024-02-23T17:34:36.198Z,98027.22
2024-02-23T17:37:38.593Z,98018.69
2024-02-23T17:40:40.800Z,98017.09
2024-02-23T17:43:42.987Z,98023.63
2024-02-23T17:46:48.943Z,98014.53
2024-02-23T17:49:51.401Z,98020.75
2024-02-23T17:52:53.714Z,98005.75
2024-02-23T17:55:58.709Z,98002.44
2024-02-23T17:59:01.233Z,98006.47
2024-02-23T18:02:03.615Z,97990.53
2024-02-23T18:05:06.260Z,97991.53
2024-02-23T18:08:08.950Z,97987.00
2024-02-23T18:11:11.396Z,97986.25
2024-02-23T18:14:17.022Z,97968.88
2024-02-23T18:17:19.301Z,97971.75
2024-02-23T18:20:21.570Z,97965.19
2024-02-23T18:23:24.190Z,97959.03
2024-02-23T18:26:26.396Z,97961.97
2024-02-23T18:29:28.784Z,97967.94
2024-02-23T18:32:31.143Z,97970.75
2024-02-23T18:35:33.562Z,97967.88
2024-02-23T18:38:35.813Z,97956.09
2024-02-23T18:41:41.311Z,97957.69
2024-02-23T18:44:43.676Z,97956.81
2024-02-23T18:47:46.331Z,97952.34
2024-02-23T18:50:49.534Z,97954.09
2024-02-23T18:53:51.815Z,97958.94
2024-02-23T18:56:54.296Z,97946.44
2024-02-23T18:59:56.999Z,97948.78
2024-02-23T19:02:59.346Z,97942.31
2024-02-23T19:06:02.078Z,97939.94
2024-02-23T19:09:06.197Z,97944.88
2024-02-23T19:12:10.699Z,97943.13
2024-02-23T19:15:13.244Z,97940.38
2024-02-23T19:18:15.634Z,97945.47
2024-02-23T19:21:19.577Z,97941.09
2024-02-23T19:24:22.165Z,97940.31
2024-02-23T19:27:24.445Z,97948.69
2024-02-23T19:30:37.358Z,97949.44
2024-02-23T19:33:39.991Z,97930.84
2024-02-23T19:36:42.299Z,97935.13
2024-02-23T19:39:47.389Z,97919.72
2024-02-23T19:42:51.545Z,97918.16
2024-02-23T19:46:00.687Z,97928.97
2024-02-23T19:49:10.116Z,97918.78
2024-02-23T19:52:15.069Z,97926.34
2024-02-23T19:55:17.675Z,97925.63
2024-02-23T19:58:19.847Z,97933.38
2024-02-23T20:01:22.364Z,97927.03
2024-02-23T20:04:24.609Z,97921.31
2024-02-23T20:07:26.928Z,97934.69
2024-02-23T20:10:38.257Z,97933.53
2024-02-23T20:13:40.807Z,97932.41
2024-02-23T20:16:43.136Z,97922.19
2024-02-23T20:19:45.492Z,97926.06
2024-02-23T20:22:47.789Z,97934.50
2024-02-23T20:25:50.030Z,97934.66
2024-02-23T20:28:52.279Z,97915.84
2024-02-23T20:31:54.474Z,97923.50
2024-02-23T20:34:58.163Z,97931.97
2024-02-23T20:38:01.858Z,97929.66
2024-02-23T20:41:04.485Z,97924.22
2024-02-23T20:44:06.668Z,97923.44
2024-02-23T20:47:10.394Z,97920.97
2024-02-23T20:50:12.907Z,97920.97
2024-02-23T20:53:15.204Z,97922.97
2024-02-23T20:56:18.576Z,97924.47
2024-02-23T20:59:20.947Z,97922.34
2024-02-23T21:02:23.407Z,97922.53
2024-02-23T21:05:25.704Z,97917.00
2024-02-23T21:08:27.894Z,97922.28
2024-02-23T21:11:30.577Z,97925.50
2024-02-23T21:14:33.112Z,97924.47
2024-02-23T21:17:35.359Z,97919.84
2024-02-23T21:20:37.777Z,97918.66
2024-02-23T21:23:40.145Z,97921.84
2024-02-23T21:26:44.156Z,97927.19
2024-02-23T21:29:46.716Z,97923.50
2024-02-23T21:32:49.602Z,97922.88
2024-02-23T21:35:51.865Z,97906.97
2024-02-23T21:38:54.052Z,97914.56
2024-02-23T21:41:56.442Z,97917.97
2024-02-23T21:44:58.705Z,97923.53
2024-02-23T21:48:01.097Z,97916.16
2024-02-23T21:51:04.623Z,97919.66
2024-02-23T21:54:06.853Z,97915.44
2024-02-23T21:57:10.306Z,97918.59
2024-02-23T22:00:12.991Z,97913.34
2024-02-23T22:03:15.250Z,97910.63
2024-02-23T22:06:20.557Z,97907.00
2024-02-23T22:09:22.772Z,97915.78
2024-02-23T22:12:29.231Z,97914.66
2024-02-23T22:15:31.347Z,97915.53
2024-02-23T22:18:34.584Z,97927.22
2024-02-23T22:21:37.189Z,97927.34
2024-02-23T22:24:39.777Z,97926.53
2024-02-23T22:27:41.957Z,97921.06
2024-02-23T22:30:49.340Z,97917.31
2024-02-23T22:33:51.658Z,97921.75
2024-02-23T22:36:53.923Z,97917.38
2024-02-23T22:39:56.078Z,97910.44
2024-02-23T22:42:58.682Z,97920.56
2024-02-23T22:46:02.237Z,97914.66
2024-02-23T22:49:05.086Z,97919.75
2024-02-23T22:52:07.714Z,97911.50
2024-02-23T22:55:09.953Z,97914.78
2024-02-23T22:58:12.577Z,97918.75
2024-02-23T23:01:15.079Z,97917.13
2024-02-23T23:04:17.358Z,97922.50
2024-02-23T23:07:19.684Z,97926.59
2024-02-23T23:10:21.924Z,97921.94
2024-02-23T23:13:23.970Z,97914.78
2024-02-23T23:16:26.209Z,97908.00
2024-02-23T23:19:28.548Z,97905.25
2024-02-23T23:22:30.801Z,97912.03
2024-02-23T23:25:34.652Z,97907.63
2024-02-23T23:28:36.853Z,97907.75
2024-02-23T23:31:39.056Z,97916.53
2024-02-23T23:34:44.300Z,97906.22
2024-02-23T23:37:46.496Z,97914.03
2024-02-23T23:40:48.719Z,97917.56
2024-02-23T23:43:51.364Z,97918.53
2024-02-23T23:46:53.750Z,97913.41
2024-02-23T23:49:55.928Z,97918.44
2024-02-23T23:52:58.087Z,97913.34
2024-02-23T23:56:00.201Z,97912.72
2024-02-23T23:59:02.322Z,97914.13
